Vila Real, Portugal

9:27 PM WET on February 13, 2016 (GMT +0000)
Moimenta Da Beira | | Change Station
CLOSE
Current Station
Personal Weather Station
Location: Moimenta Da Beira, PT
Elevation: 2116 ft
Nearby Weather Stations

Elev 2116 ft 40.98 °N, 7.61 °W | Updated 2 minutes ago

Mostly Cloudy
Mostly Cloudy
50.0 °F
Feels Like 44 °F
N
19.7
Wind Variable Wind from West
Gusts 29.8 mph

Today
High -- | Low -- °F
--% Chance of Precip.
Yesterday
High -- | Low -- °F
Precip. -- in
Pressure 29.83 in
Visibility 6.2 miles
Clouds Scattered Clouds 2200 ft
Mostly Cloudy 4000 ft
Mostly Cloudy 4500 ft
Windchill 44 °F
Dew Point 43 °F
Humidity 76%
Rainfall 0.33 in
Snow Depth Not available.
7:29 AM 6:01 PM
Waxing Crescent, 34% visible
METAR LPPR 132100Z 29010G20KT 260V320 9999 SCT022 BKN040 BKN045 14/11 Q1010
Pressure 29.83 in
Visibility 6.2 miles
Clouds Scattered Clouds 2200 ft
Mostly Cloudy 4000 ft
Mostly Cloudy 4500 ft
Windchill 44 °F
Dew Point 43 °F
Humidity 76%
Rainfall 0.33 in
Snow Depth Not available.
7:29 AM 6:01 PM
Waxing Crescent, 34% visible
METAR LPPR 132100Z 29010G20KT 260V320 9999 SCT022 BKN040 BKN045 14/11 Q1010

10-Day Weather Forecast

Almanac

Astronomy

Feb. 13, 2016 Rise Set
Actual Time
Civil Twilight
Nautical Twilight
Astronomical Twilight
Moon
Length of Visible Light
Length of Day
Tomorrow will be .
, % of the Moon is Illuminated

Today's Extremes

Country Highs Country Lows

Community

WunderPhotos

Upload Photos

1,892,670 photos uploaded!

WunderBlog® & News

Nearby

Air Quality

  Air Quality AQ Index Pollutant
Not available.

Snow Depth

Station Depth Elevation

Earthquake Activity

City Distance Mag. Time & Date
Minimum magnitude displayed is 2.5.

Coastal Water Temperatures

Place Temperature

Stations

Nearby Weather Stations

Station Location Temp. Windchill Dew Point Humidity Wind Precip. Elev Updated Type